sensor_id;sensor_type;location;lat;lon;timestamp;P1;durP1;ratioP1;P2;durP2;ratioP2
17127;SDS011;8679;50.842;4.322;2022-11-20T00:00:57;1.03;;;0.50;;
17127;SDS011;8679;50.842;4.322;2022-11-20T00:03:29;2.97;;;1.73;;
17127;SDS011;8679;50.842;4.322;2022-11-20T00:05:58;2.83;;;2.10;;
17127;SDS011;8679;50.842;4.322;2022-11-20T00:08:25;2.97;;;2.67;;
17127;SDS011;8679;50.842;4.322;2022-11-20T00:10:51;2.50;;;2.07;;
17127;SDS011;8679;50.842;4.322;2022-11-20T00:13:16;3.20;;;1.47;;
17127;SDS011;8679;50.842;4.322;2022-11-20T00:15:42;2.60;;;2.40;;
17127;SDS011;8679;50.842;4.322;2022-11-20T00:18:08;3.00;;;2.27;;
17127;SDS011;8679;50.842;4.322;2022-11-20T00:20:35;2.97;;;2.70;;
17127;SDS011;8679;50.842;4.322;2022-11-20T00:23:02;1.77;;;1.67;;
17127;SDS011;8679;50.842;4.322;2022-11-20T00:25:28;2.50;;;1.87;;
17127;SDS011;8679;50.842;4.322;2022-11-20T00:27:54;2.47;;;1.97;;
17127;SDS011;8679;50.842;4.322;2022-11-20T00:30:20;2.93;;;1.73;;
17127;SDS011;8679;50.842;4.322;2022-11-20T00:32:46;2.80;;;2.50;;
17127;SDS011;8679;50.842;4.322;2022-11-20T00:35:11;3.13;;;2.53;;
17127;SDS011;8679;50.842;4.322;2022-11-20T00:37:37;1.93;;;1.20;;
17127;SDS011;8679;50.842;4.322;2022-11-20T00:40:03;1.20;;;1.10;;
17127;SDS011;8679;50.842;4.322;2022-11-20T00:42:29;1.70;;;1.60;;
17127;SDS011;8679;50.842;4.322;2022-11-20T00:44:55;2.63;;;1.33;;
17127;SDS011;8679;50.842;4.322;2022-11-20T00:47:21;3.03;;;2.00;;
17127;SDS011;8679;50.842;4.322;2022-11-20T00:49:47;3.37;;;3.07;;
17127;SDS011;8679;50.842;4.322;2022-11-20T00:52:12;1.47;;;1.37;;
17127;SDS011;8679;50.842;4.322;2022-11-20T00:54:38;2.40;;;1.93;;
17127;SDS011;8679;50.842;4.322;2022-11-20T00:57:04;1.73;;;1.63;;
17127;SDS011;8679;50.842;4.322;2022-11-20T00:59:29;3.70;;;3.17;;
17127;SDS011;8679;50.842;4.322;2022-11-20T01:01:55;2.77;;;2.53;;
17127;SDS011;8679;50.842;4.322;2022-11-20T01:04:20;2.63;;;2.47;;
17127;SDS011;8679;50.842;4.322;2022-11-20T01:06:46;3.57;;;2.13;;
17127;SDS011;8679;50.842;4.322;2022-11-20T01:09:13;2.67;;;2.13;;
17127;SDS011;8679;50.842;4.322;2022-11-20T01:11:41;2.93;;;2.27;;
17127;SDS011;8679;50.842;4.322;2022-11-20T01:14:10;1.40;;;1.30;;
17127;SDS011;8679;50.842;4.322;2022-11-20T01:16:42;4.50;;;2.07;;
17127;SDS011;8679;50.842;4.322;2022-11-20T01:19:13;2.23;;;2.03;;
17127;SDS011;8679;50.842;4.322;2022-11-20T01:21:42;1.90;;;1.53;;
17127;SDS011;8679;50.842;4.322;2022-11-20T01:24:13;1.27;;;1.17;;
17127;SDS011;8679;50.842;4.322;2022-11-20T01:26:40;2.30;;;2.10;;
17127;SDS011;8679;50.842;4.322;2022-11-20T01:29:07;1.57;;;1.47;;
17127;SDS011;8679;50.842;4.322;2022-11-20T01:31:44;1.17;;;0.93;;
17127;SDS011;8679;50.842;4.322;2022-11-20T01:34:11;2.13;;;1.43;;
17127;SDS011;8679;50.842;4.322;2022-11-20T01:36:40;1.67;;;1.57;;
17127;SDS011;8679;50.842;4.322;2022-11-20T01:39:11;3.37;;;2.97;;
17127;SDS011;8679;50.842;4.322;2022-11-20T01:41:42;1.40;;;1.10;;
17127;SDS011;8679;50.842;4.322;2022-11-20T01:47:27;1.73;;;1.20;;
17127;SDS011;8679;50.842;4.322;2022-11-20T01:50:05;3.50;;;2.27;;
17127;SDS011;8679;50.842;4.322;2022-11-20T01:52:38;2.67;;;2.03;;
17127;SDS011;8679;50.842;4.322;2022-11-20T01:55:12;3.40;;;2.80;;
17127;SDS011;8679;50.842;4.322;2022-11-20T01:57:41;2.63;;;2.43;;
17127;SDS011;8679;50.842;4.322;2022-11-20T02:00:10;2.87;;;2.63;;
17127;SDS011;8679;50.842;4.322;2022-11-20T02:02:39;2.53;;;1.40;;
17127;SDS011;8679;50.842;4.322;2022-11-20T02:05:11;2.30;;;2.10;;
17127;SDS011;8679;50.842;4.322;2022-11-20T02:07:46;2.83;;;1.53;;
17127;SDS011;8679;50.842;4.322;2022-11-20T02:10:13;7.30;;;1.47;;
17127;SDS011;8679;50.842;4.322;2022-11-20T02:12:39;1.70;;;0.83;;
17127;SDS011;8679;50.842;4.322;2022-11-20T02:15:23;4.70;;;2.93;;
17127;SDS011;8679;50.842;4.322;2022-11-20T02:17:49;2.50;;;2.40;;
17127;SDS011;8679;50.842;4.322;2022-11-20T02:20:15;2.47;;;2.27;;
17127;SDS011;8679;50.842;4.322;2022-11-20T02:22:51;1.53;;;1.43;;
17127;SDS011;8679;50.842;4.322;2022-11-20T02:25:19;2.33;;;2.13;;
17127;SDS011;8679;50.842;4.322;2022-11-20T02:27:46;4.13;;;2.53;;
17127;SDS011;8679;50.842;4.322;2022-11-20T02:30:12;1.90;;;1.77;;
17127;SDS011;8679;50.842;4.322;2022-11-20T02:32:39;4.97;;;2.63;;
17127;SDS011;8679;50.842;4.322;2022-11-20T02:35:47;3.30;;;1.90;;
17127;SDS011;8679;50.842;4.322;2022-11-20T02:37:54;2.60;;;1.97;;
17127;SDS011;8679;50.842;4.322;2022-11-20T02:40:25;2.13;;;1.63;;
17127;SDS011;8679;50.842;4.322;2022-11-20T02:42:52;3.40;;;2.03;;
17127;SDS011;8679;50.842;4.322;2022-11-20T02:45:18;0.93;;;0.93;;
17127;SDS011;8679;50.842;4.322;2022-11-20T02:47:43;2.37;;;1.50;;
17127;SDS011;8679;50.842;4.322;2022-11-20T02:50:09;4.47;;;3.10;;
17127;SDS011;8679;50.842;4.322;2022-11-20T02:52:37;4.47;;;4.10;;
17127;SDS011;8679;50.842;4.322;2022-11-20T02:55:03;2.37;;;2.13;;
17127;SDS011;8679;50.842;4.322;2022-11-20T02:57:29;2.90;;;2.13;;
17127;SDS011;8679;50.842;4.322;2022-11-20T02:59:55;3.97;;;3.67;;
17127;SDS011;8679;50.842;4.322;2022-11-20T03:02:20;1.80;;;1.30;;
17127;SDS011;8679;50.842;4.322;2022-11-20T03:04:46;2.23;;;2.13;;
17127;SDS011;8679;50.842;4.322;2022-11-20T03:07:12;4.20;;;2.77;;
17127;SDS011;8679;50.842;4.322;2022-11-20T03:09:37;1.90;;;1.80;;
17127;SDS011;8679;50.842;4.322;2022-11-20T03:12:03;3.83;;;1.77;;
17127;SDS011;8679;50.842;4.322;2022-11-20T03:14:29;0.87;;;0.80;;
17127;SDS011;8679;50.842;4.322;2022-11-20T03:16:55;2.27;;;1.40;;
17127;SDS011;8679;50.842;4.322;2022-11-20T03:19:21;2.20;;;1.93;;
17127;SDS011;8679;50.842;4.322;2022-11-20T03:21:46;3.50;;;1.33;;
17127;SDS011;8679;50.842;4.322;2022-11-20T03:24:12;1.57;;;1.47;;
17127;SDS011;8679;50.842;4.322;2022-11-20T03:26:38;2.07;;;1.93;;
17127;SDS011;8679;50.842;4.322;2022-11-20T03:29:04;1.83;;;1.73;;
17127;SDS011;8679;50.842;4.322;2022-11-20T03:31:34;1.13;;;1.03;;
17127;SDS011;8679;50.842;4.322;2022-11-20T03:34:02;3.67;;;2.77;;
17127;SDS011;8679;50.842;4.322;2022-11-20T03:36:28;2.50;;;2.30;;
17127;SDS011;8679;50.842;4.322;2022-11-20T03:38:55;1.80;;;1.70;;
17127;SDS011;8679;50.842;4.322;2022-11-20T03:41:22;2.20;;;2.00;;
17127;SDS011;8679;50.842;4.322;2022-11-20T03:43:54;3.33;;;2.70;;
17127;SDS011;8679;50.842;4.322;2022-11-20T03:46:21;2.20;;;1.93;;
17127;SDS011;8679;50.842;4.322;2022-11-20T03:48:47;4.17;;;2.23;;
17127;SDS011;8679;50.842;4.322;2022-11-20T03:51:14;2.53;;;1.23;;
17127;SDS011;8679;50.842;4.322;2022-11-20T03:53:45;2.20;;;2.10;;
17127;SDS011;8679;50.842;4.322;2022-11-20T03:56:12;2.23;;;1.73;;
17127;SDS011;8679;50.842;4.322;2022-11-20T03:58:39;4.43;;;1.93;;
17127;SDS011;8679;50.842;4.322;2022-11-20T04:01:06;1.97;;;1.83;;
17127;SDS011;8679;50.842;4.322;2022-11-20T04:03:33;3.70;;;2.07;;
17127;SDS011;8679;50.842;4.322;2022-11-20T04:06:06;2.03;;;1.73;;
17127;SDS011;8679;50.842;4.322;2022-11-20T04:08:37;3.23;;;2.33;;
17127;SDS011;8679;50.842;4.322;2022-11-20T04:11:12;1.83;;;1.27;;
17127;SDS011;8679;50.842;4.322;2022-11-20T04:13:38;3.53;;;1.53;;
17127;SDS011;8679;50.842;4.322;2022-11-20T04:16:05;1.67;;;0.93;;
17127;SDS011;8679;50.842;4.322;2022-11-20T04:18:31;1.77;;;1.67;;
17127;SDS011;8679;50.842;4.322;2022-11-20T04:20:57;2.30;;;2.07;;
17127;SDS011;8679;50.842;4.322;2022-11-20T04:23:23;5.27;;;2.20;;
17127;SDS011;8679;50.842;4.322;2022-11-20T04:25:49;1.13;;;1.07;;
17127;SDS011;8679;50.842;4.322;2022-11-20T04:28:15;2.43;;;1.67;;
17127;SDS011;8679;50.842;4.322;2022-11-20T04:30:41;3.87;;;3.50;;
17127;SDS011;8679;50.842;4.322;2022-11-20T04:33:06;2.43;;;2.10;;
17127;SDS011;8679;50.842;4.322;2022-11-20T04:35:35;5.83;;;3.37;;
17127;SDS011;8679;50.842;4.322;2022-11-20T04:38:02;3.77;;;3.47;;
17127;SDS011;8679;50.842;4.322;2022-11-20T04:40:28;3.13;;;2.40;;
17127;SDS011;8679;50.842;4.322;2022-11-20T04:42:54;3.73;;;3.43;;
17127;SDS011;8679;50.842;4.322;2022-11-20T04:45:20;3.57;;;3.20;;
17127;SDS011;8679;50.842;4.322;2022-11-20T04:47:47;3.87;;;1.77;;
17127;SDS011;8679;50.842;4.322;2022-11-20T04:50:13;2.17;;;1.63;;
17127;SDS011;8679;50.842;4.322;2022-11-20T04:52:38;2.17;;;1.97;;
17127;SDS011;8679;50.842;4.322;2022-11-20T04:55:04;2.03;;;1.50;;
17127;SDS011;8679;50.842;4.322;2022-11-20T04:57:30;3.67;;;1.77;;
17127;SDS011;8679;50.842;4.322;2022-11-20T04:59:56;4.33;;;3.93;;
17127;SDS011;8679;50.842;4.322;2022-11-20T05:02:21;5.70;;;2.93;;
17127;SDS011;8679;50.842;4.322;2022-11-20T05:04:47;2.37;;;1.83;;
17127;SDS011;8679;50.842;4.322;2022-11-20T05:07:13;3.20;;;1.90;;
17127;SDS011;8679;50.842;4.322;2022-11-20T05:09:39;5.07;;;1.97;;
17127;SDS011;8679;50.842;4.322;2022-11-20T05:12:06;1.67;;;0.87;;
17127;SDS011;8679;50.842;4.322;2022-11-20T05:14:33;2.47;;;2.03;;
17127;SDS011;8679;50.842;4.322;2022-11-20T05:16:59;3.20;;;2.93;;
17127;SDS011;8679;50.842;4.322;2022-11-20T05:19:25;3.23;;;3.00;;
17127;SDS011;8679;50.842;4.322;2022-11-20T05:21:50;3.00;;;2.83;;
17127;SDS011;8679;50.842;4.322;2022-11-20T05:24:16;2.93;;;1.03;;
17127;SDS011;8679;50.842;4.322;2022-11-20T05:26:42;4.83;;;1.23;;
17127;SDS011;8679;50.842;4.322;2022-11-20T05:29:09;3.87;;;2.83;;
17127;SDS011;8679;50.842;4.322;2022-11-20T05:31:36;3.87;;;2.27;;
17127;SDS011;8679;50.842;4.322;2022-11-20T05:34:05;5.57;;;2.70;;
17127;SDS011;8679;50.842;4.322;2022-11-20T05:36:31;3.10;;;2.53;;
17127;SDS011;8679;50.842;4.322;2022-11-20T05:38:57;2.23;;;1.97;;
17127;SDS011;8679;50.842;4.322;2022-11-20T05:41:23;4.00;;;2.87;;
17127;SDS011;8679;50.842;4.322;2022-11-20T05:43:50;6.67;;;2.57;;
17127;SDS011;8679;50.842;4.322;2022-11-20T05:46:18;5.13;;;1.83;;
17127;SDS011;8679;50.842;4.322;2022-11-20T05:48:45;2.53;;;2.00;;
17127;SDS011;8679;50.842;4.322;2022-11-20T05:51:12;4.33;;;3.67;;
17127;SDS011;8679;50.842;4.322;2022-11-20T05:53:40;3.70;;;2.10;;
17127;SDS011;8679;50.842;4.322;2022-11-20T05:56:08;2.10;;;1.70;;
17127;SDS011;8679;50.842;4.322;2022-11-20T05:58:36;3.10;;;2.80;;
17127;SDS011;8679;50.842;4.322;2022-11-20T06:03:57;5.07;;;2.17;;
17127;SDS011;8679;50.842;4.322;2022-11-20T06:06:23;2.07;;;1.87;;
17127;SDS011;8679;50.842;4.322;2022-11-20T06:08:50;2.40;;;2.20;;
17127;SDS011;8679;50.842;4.322;2022-11-20T06:11:15;6.17;;;1.70;;
17127;SDS011;8679;50.842;4.322;2022-11-20T06:13:42;2.27;;;1.77;;
17127;SDS011;8679;50.842;4.322;2022-11-20T06:16:08;1.53;;;1.43;;
17127;SDS011;8679;50.842;4.322;2022-11-20T06:18:35;1.37;;;1.30;;
17127;SDS011;8679;50.842;4.322;2022-11-20T06:21:02;4.43;;;2.47;;
17127;SDS011;8679;50.842;4.322;2022-11-20T06:23:29;2.83;;;2.57;;
17127;SDS011;8679;50.842;4.322;2022-11-20T06:25:56;2.37;;;2.17;;
17127;SDS011;8679;50.842;4.322;2022-11-20T06:28:22;2.80;;;2.03;;
17127;SDS011;8679;50.842;4.322;2022-11-20T06:30:48;3.63;;;1.60;;
17127;SDS011;8679;50.842;4.322;2022-11-20T06:33:14;3.07;;;2.80;;
17127;SDS011;8679;50.842;4.322;2022-11-20T06:35:39;4.33;;;2.67;;
17127;SDS011;8679;50.842;4.322;2022-11-20T06:38:05;2.00;;;1.07;;
17127;SDS011;8679;50.842;4.322;2022-11-20T06:40:31;2.50;;;1.70;;
17127;SDS011;8679;50.842;4.322;2022-11-20T06:42:56;2.67;;;0.93;;
17127;SDS011;8679;50.842;4.322;2022-11-20T06:45:22;3.40;;;1.83;;
17127;SDS011;8679;50.842;4.322;2022-11-20T06:47:47;4.83;;;3.37;;
17127;SDS011;8679;50.842;4.322;2022-11-20T06:50:13;3.80;;;1.40;;
17127;SDS011;8679;50.842;4.322;2022-11-20T06:52:39;2.80;;;2.53;;
17127;SDS011;8679;50.842;4.322;2022-11-20T06:55:04;2.00;;;1.90;;
17127;SDS011;8679;50.842;4.322;2022-11-20T06:57:30;4.40;;;2.83;;
17127;SDS011;8679;50.842;4.322;2022-11-20T06:59:56;1.53;;;1.43;;
17127;SDS011;8679;50.842;4.322;2022-11-20T07:02:22;2.50;;;2.30;;
17127;SDS011;8679;50.842;4.322;2022-11-20T07:04:47;4.27;;;2.40;;
17127;SDS011;8679;50.842;4.322;2022-11-20T07:07:13;5.77;;;2.73;;
17127;SDS011;8679;50.842;4.322;2022-11-20T07:09:38;2.73;;;2.53;;
17127;SDS011;8679;50.842;4.322;2022-11-20T07:12:04;3.67;;;1.20;;
17127;SDS011;8679;50.842;4.322;2022-11-20T07:14:30;3.13;;;2.73;;
17127;SDS011;8679;50.842;4.322;2022-11-20T07:16:56;5.53;;;2.57;;
17127;SDS011;8679;50.842;4.322;2022-11-20T07:19:21;2.73;;;1.90;;
17127;SDS011;8679;50.842;4.322;2022-11-20T07:21:47;1.33;;;1.23;;
17127;SDS011;8679;50.842;4.322;2022-11-20T07:24:12;3.30;;;3.00;;
17127;SDS011;8679;50.842;4.322;2022-11-20T07:26:38;2.50;;;2.30;;
17127;SDS011;8679;50.842;4.322;2022-11-20T07:29:04;1.60;;;1.27;;
17127;SDS011;8679;50.842;4.322;2022-11-20T07:31:29;1.63;;;1.53;;
17127;SDS011;8679;50.842;4.322;2022-11-20T07:33:55;1.87;;;1.27;;
17127;SDS011;8679;50.842;4.322;2022-11-20T07:36:21;1.70;;;1.60;;
17127;SDS011;8679;50.842;4.322;2022-11-20T07:38:46;3.13;;;1.97;;
17127;SDS011;8679;50.842;4.322;2022-11-20T07:41:12;2.23;;;1.93;;
17127;SDS011;8679;50.842;4.322;2022-11-20T07:43:37;3.17;;;1.80;;
17127;SDS011;8679;50.842;4.322;2022-11-20T07:46:03;2.00;;;1.90;;
17127;SDS011;8679;50.842;4.322;2022-11-20T07:48:29;3.33;;;3.07;;
17127;SDS011;8679;50.842;4.322;2022-11-20T07:50:55;1.30;;;1.27;;
17127;SDS011;8679;50.842;4.322;2022-11-20T07:53:21;2.53;;;2.40;;
17127;SDS011;8679;50.842;4.322;2022-11-20T07:55:47;2.17;;;1.77;;
17127;SDS011;8679;50.842;4.322;2022-11-20T07:58:13;2.50;;;1.77;;
17127;SDS011;8679;50.842;4.322;2022-11-20T08:00:39;1.63;;;1.53;;
17127;SDS011;8679;50.842;4.322;2022-11-20T08:03:05;3.33;;;2.10;;
17127;SDS011;8679;50.842;4.322;2022-11-20T08:05:31;1.83;;;1.73;;
17127;SDS011;8679;50.842;4.322;2022-11-20T08:07:57;1.53;;;1.43;;
17127;SDS011;8679;50.842;4.322;2022-11-20T08:10:23;1.70;;;1.60;;
17127;SDS011;8679;50.842;4.322;2022-11-20T08:12:50;2.70;;;2.20;;
17127;SDS011;8679;50.842;4.322;2022-11-20T08:15:35;5.17;;;3.07;;
17127;SDS011;8679;50.842;4.322;2022-11-20T08:18:03;2.07;;;1.87;;
17127;SDS011;8679;50.842;4.322;2022-11-20T08:20:31;1.23;;;1.17;;
17127;SDS011;8679;50.842;4.322;2022-11-20T08:22:57;2.57;;;1.87;;
17127;SDS011;8679;50.842;4.322;2022-11-20T08:25:27;2.10;;;1.93;;
17127;SDS011;8679;50.842;4.322;2022-11-20T08:27:56;2.37;;;2.17;;
17127;SDS011;8679;50.842;4.322;2022-11-20T08:30:23;1.03;;;1.03;;
17127;SDS011;8679;50.842;4.322;2022-11-20T08:32:48;3.47;;;2.50;;
17127;SDS011;8679;50.842;4.322;2022-11-20T08:35:14;2.13;;;1.93;;
17127;SDS011;8679;50.842;4.322;2022-11-20T08:37:40;3.90;;;2.43;;
17127;SDS011;8679;50.842;4.322;2022-11-20T08:40:08;2.20;;;1.87;;
17127;SDS011;8679;50.842;4.322;2022-11-20T08:42:35;2.53;;;1.23;;
17127;SDS011;8679;50.842;4.322;2022-11-20T08:45:00;4.47;;;3.63;;
17127;SDS011;8679;50.842;4.322;2022-11-20T08:47:26;1.50;;;1.40;;
17127;SDS011;8679;50.842;4.322;2022-11-20T08:49:52;2.33;;;2.17;;
17127;SDS011;8679;50.842;4.322;2022-11-20T08:52:17;2.93;;;2.50;;
17127;SDS011;8679;50.842;4.322;2022-11-20T08:54:43;3.43;;;3.00;;
17127;SDS011;8679;50.842;4.322;2022-11-20T08:57:09;3.43;;;3.13;;
17127;SDS011;8679;50.842;4.322;2022-11-20T08:59:34;2.60;;;2.40;;
17127;SDS011;8679;50.842;4.322;2022-11-20T09:02:00;6.70;;;3.00;;
17127;SDS011;8679;50.842;4.322;2022-11-20T09:04:25;2.10;;;2.00;;
17127;SDS011;8679;50.842;4.322;2022-11-20T09:06:51;1.73;;;1.13;;
17127;SDS011;8679;50.842;4.322;2022-11-20T09:09:17;1.67;;;1.57;;
17127;SDS011;8679;50.842;4.322;2022-11-20T09:11:43;2.87;;;2.63;;
17127;SDS011;8679;50.842;4.322;2022-11-20T09:14:09;2.53;;;2.33;;
17127;SDS011;8679;50.842;4.322;2022-11-20T09:16:35;1.83;;;1.73;;
17127;SDS011;8679;50.842;4.322;2022-11-20T09:19:00;2.07;;;1.90;;
17127;SDS011;8679;50.842;4.322;2022-11-20T09:21:26;1.53;;;1.43;;
17127;SDS011;8679;50.842;4.322;2022-11-20T09:23:52;2.73;;;2.53;;
17127;SDS011;8679;50.842;4.322;2022-11-20T09:26:17;1.60;;;1.50;;
17127;SDS011;8679;50.842;4.322;2022-11-20T09:28:44;4.00;;;1.57;;
17127;SDS011;8679;50.842;4.322;2022-11-20T09:31:23;1.40;;;1.20;;
17127;SDS011;8679;50.842;4.322;2022-11-20T09:33:50;1.93;;;1.83;;
17127;SDS011;8679;50.842;4.322;2022-11-20T09:36:16;2.50;;;2.30;;
17127;SDS011;8679;50.842;4.322;2022-11-20T09:38:45;0.87;;;0.87;;
17127;SDS011;8679;50.842;4.322;2022-11-20T09:41:23;1.13;;;1.03;;
17127;SDS011;8679;50.842;4.322;2022-11-20T09:52:58;2.50;;;1.83;;
17127;SDS011;8679;50.842;4.322;2022-11-20T09:55:33;2.17;;;1.57;;
17127;SDS011;8679;50.842;4.322;2022-11-20T09:58:01;1.37;;;1.27;;
17127;SDS011;8679;50.842;4.322;2022-11-20T10:00:49;1.13;;;1.10;;
17127;SDS011;8679;50.842;4.322;2022-11-20T10:03:16;1.73;;;1.30;;
17127;SDS011;8679;50.842;4.322;2022-11-20T10:05:54;0.90;;;0.63;;
17127;SDS011;8679;50.842;4.322;2022-11-20T10:30:12;1.73;;;1.53;;
17127;SDS011;8679;50.842;4.322;2022-11-20T10:32:43;1.20;;;1.00;;
17127;SDS011;8679;50.842;4.322;2022-11-20T10:35:23;0.20;;;0.20;;
17127;SDS011;8679;50.842;4.322;2022-11-20T10:38:00;0.80;;;0.53;;
17127;SDS011;8679;50.842;4.322;2022-11-20T10:43:02;0.30;;;0.20;;
17127;SDS011;8679;50.842;4.322;2022-11-20T10:45:43;0.70;;;0.70;;
17127;SDS011;8679;50.842;4.322;2022-11-20T10:48:20;1.60;;;1.03;;
17127;SDS011;8679;50.842;4.322;2022-11-20T10:50:51;6.90;;;0.60;;
17127;SDS011;8679;50.842;4.322;2022-11-20T10:56:20;0.70;;;0.47;;
17127;SDS011;8679;50.842;4.322;2022-11-20T10:59:03;0.10;;;0.10;;
17127;SDS011;8679;50.842;4.322;2022-11-20T11:01:42;1.27;;;1.17;;
17127;SDS011;8679;50.842;4.322;2022-11-20T11:09:52;1.20;;;0.53;;
17127;SDS011;8679;50.842;4.322;2022-11-20T11:12:20;0.30;;;0.30;;
17127;SDS011;8679;50.842;4.322;2022-11-20T11:14:50;0.67;;;0.67;;
17127;SDS011;8679;50.842;4.322;2022-11-20T11:17:25;0.83;;;0.33;;
17127;SDS011;8679;50.842;4.322;2022-11-20T11:19:58;0.60;;;0.30;;
17127;SDS011;8679;50.842;4.322;2022-11-20T11:22:25;0.20;;;0.20;;
17127;SDS011;8679;50.842;4.322;2022-11-20T11:24:57;0.43;;;0.43;;
17127;SDS011;8679;50.842;4.322;2022-11-20T11:27:22;0.30;;;0.30;;
17127;SDS011;8679;50.842;4.322;2022-11-20T11:29:48;0.70;;;0.40;;
17127;SDS011;8679;50.842;4.322;2022-11-20T11:32:15;1.83;;;0.70;;
17127;SDS011;8679;50.842;4.322;2022-11-20T11:34:44;0.50;;;0.30;;
17127;SDS011;8679;50.842;4.322;2022-11-20T11:37:15;0.87;;;0.80;;
17127;SDS011;8679;50.842;4.322;2022-11-20T11:39:43;0.23;;;0.23;;
17127;SDS011;8679;50.842;4.322;2022-11-20T11:42:13;0.40;;;0.40;;
17127;SDS011;8679;50.842;4.322;2022-11-20T11:44:46;0.57;;;0.53;;
17127;SDS011;8679;50.842;4.322;2022-11-20T11:50:21;0.70;;;0.40;;
17127;SDS011;8679;50.842;4.322;2022-11-20T12:00:48;0.20;;;0.20;;
17127;SDS011;8679;50.842;4.322;2022-11-20T12:03:42;0.30;;;0.30;;
17127;SDS011;8679;50.842;4.322;2022-11-20T12:06:17;1.47;;;1.37;;
17127;SDS011;8679;50.842;4.322;2022-11-20T12:08:48;0.53;;;0.23;;
17127;SDS011;8679;50.842;4.322;2022-11-20T12:11:27;0.83;;;0.60;;
17127;SDS011;8679;50.842;4.322;2022-11-20T12:14:05;1.03;;;0.80;;
17127;SDS011;8679;50.842;4.322;2022-11-20T12:16:54;0.20;;;0.20;;
17127;SDS011;8679;50.842;4.322;2022-11-20T12:19:22;0.27;;;0.20;;
17127;SDS011;8679;50.842;4.322;2022-11-20T12:22:12;0.30;;;0.27;;
17127;SDS011;8679;50.842;4.322;2022-11-20T12:25:00;0.10;;;0.10;;
17127;SDS011;8679;50.842;4.322;2022-11-20T12:30:29;0.30;;;0.27;;
17127;SDS011;8679;50.842;4.322;2022-11-20T12:38:31;0.40;;;0.40;;
17127;SDS011;8679;50.842;4.322;2022-11-20T12:43:27;0.20;;;0.20;;
17127;SDS011;8679;50.842;4.322;2022-11-20T12:46:43;0.40;;;0.30;;
17127;SDS011;8679;50.842;4.322;2022-11-20T12:52:34;0.50;;;0.50;;
17127;SDS011;8679;50.842;4.322;2022-11-20T13:00:19;0.10;;;0.10;;
17127;SDS011;8679;50.842;4.322;2022-11-20T13:05:24;0.10;;;0.10;;
17127;SDS011;8679;50.842;4.322;2022-11-20T13:07:56;0.10;;;0.10;;
17127;SDS011;8679;50.842;4.322;2022-11-20T13:10:36;0.60;;;0.60;;
17127;SDS011;8679;50.842;4.322;2022-11-20T13:18:29;0.70;;;0.70;;
17127;SDS011;8679;50.842;4.322;2022-11-20T13:21:01;0.20;;;0.20;;
17127;SDS011;8679;50.842;4.322;2022-11-20T13:23:27;0.40;;;0.40;;
17127;SDS011;8679;50.842;4.322;2022-11-20T13:26:03;0.07;;;0.07;;
17127;SDS011;8679;50.842;4.322;2022-11-20T13:28:30;1.43;;;1.20;;
17127;SDS011;8679;50.842;4.322;2022-11-20T13:30:56;1.13;;;0.60;;
17127;SDS011;8679;50.842;4.322;2022-11-20T13:33:25;0.33;;;0.33;;
17127;SDS011;8679;50.842;4.322;2022-11-20T13:38:28;0.87;;;0.23;;
17127;SDS011;8679;50.842;4.322;2022-11-20T13:41:10;0.10;;;0.10;;
17127;SDS011;8679;50.842;4.322;2022-11-20T13:44:15;0.20;;;0.20;;
17127;SDS011;8679;50.842;4.322;2022-11-20T13:49:46;0.10;;;0.10;;
17127;SDS011;8679;50.842;4.322;2022-11-20T14:00:15;0.10;;;0.10;;
17127;SDS011;8679;50.842;4.322;2022-11-20T14:02:57;0.10;;;0.10;;
17127;SDS011;8679;50.842;4.322;2022-11-20T14:05:24;0.30;;;0.30;;
17127;SDS011;8679;50.842;4.322;2022-11-20T14:07:51;0.10;;;0.10;;
17127;SDS011;8679;50.842;4.322;2022-11-20T14:10:24;0.20;;;0.20;;
17127;SDS011;8679;50.842;4.322;2022-11-20T14:12:52;0.30;;;0.30;;
17127;SDS011;8679;50.842;4.322;2022-11-20T14:15:29;0.10;;;0.10;;
17127;SDS011;8679;50.842;4.322;2022-11-20T14:17:59;0.30;;;0.30;;
17127;SDS011;8679;50.842;4.322;2022-11-20T14:20:36;0.17;;;0.17;;
17127;SDS011;8679;50.842;4.322;2022-11-20T14:23:03;0.10;;;0.10;;
17127;SDS011;8679;50.842;4.322;2022-11-20T14:25:30;0.20;;;0.20;;
17127;SDS011;8679;50.842;4.322;2022-11-20T14:27:59;1.50;;;0.73;;
17127;SDS011;8679;50.842;4.322;2022-11-20T14:30:38;0.10;;;0.10;;
17127;SDS011;8679;50.842;4.322;2022-11-20T14:33:09;0.10;;;0.10;;
17127;SDS011;8679;50.842;4.322;2022-11-20T14:35:37;0.10;;;0.10;;
17127;SDS011;8679;50.842;4.322;2022-11-20T14:38:11;0.30;;;0.30;;
17127;SDS011;8679;50.842;4.322;2022-11-20T14:40:40;0.10;;;0.10;;
17127;SDS011;8679;50.842;4.322;2022-11-20T14:43:17;0.10;;;0.10;;
17127;SDS011;8679;50.842;4.322;2022-11-20T14:45:48;0.30;;;0.10;;
17127;SDS011;8679;50.842;4.322;2022-11-20T14:48:31;0.20;;;0.20;;
17127;SDS011;8679;50.842;4.322;2022-11-20T14:51:02;0.20;;;0.20;;
17127;SDS011;8679;50.842;4.322;2022-11-20T14:53:28;0.20;;;0.20;;
17127;SDS011;8679;50.842;4.322;2022-11-20T14:55:57;0.20;;;0.20;;
17127;SDS011;8679;50.842;4.322;2022-11-20T14:58:26;0.23;;;0.23;;
17127;SDS011;8679;50.842;4.322;2022-11-20T15:01:06;0.63;;;0.63;;
17127;SDS011;8679;50.842;4.322;2022-11-20T15:03:38;0.10;;;0.10;;
17127;SDS011;8679;50.842;4.322;2022-11-20T15:06:06;0.20;;;0.20;;
17127;SDS011;8679;50.842;4.322;2022-11-20T15:08:33;0.50;;;0.50;;
17127;SDS011;8679;50.842;4.322;2022-11-20T15:10:59;0.30;;;0.30;;
17127;SDS011;8679;50.842;4.322;2022-11-20T15:13:32;0.20;;;0.20;;
17127;SDS011;8679;50.842;4.322;2022-11-20T15:16:01;0.50;;;0.30;;
17127;SDS011;8679;50.842;4.322;2022-11-20T15:18:32;0.40;;;0.40;;
17127;SDS011;8679;50.842;4.322;2022-11-20T15:21:03;0.73;;;0.50;;
17127;SDS011;8679;50.842;4.322;2022-11-20T15:23:35;0.40;;;0.40;;
17127;SDS011;8679;50.842;4.322;2022-11-20T15:26:00;0.37;;;0.37;;
17127;SDS011;8679;50.842;4.322;2022-11-20T15:28:33;0.57;;;0.40;;
17127;SDS011;8679;50.842;4.322;2022-11-20T15:31:04;0.87;;;0.30;;
17127;SDS011;8679;50.842;4.322;2022-11-20T15:33:31;0.27;;;0.27;;
17127;SDS011;8679;50.842;4.322;2022-11-20T15:35:58;0.20;;;0.20;;
17127;SDS011;8679;50.842;4.322;2022-11-20T15:38:24;0.33;;;0.33;;
17127;SDS011;8679;50.842;4.322;2022-11-20T15:40:51;1.27;;;1.17;;
17127;SDS011;8679;50.842;4.322;2022-11-20T15:43:17;0.40;;;0.40;;
17127;SDS011;8679;50.842;4.322;2022-11-20T15:48:20;0.30;;;0.30;;
17127;SDS011;8679;50.842;4.322;2022-11-20T15:50:51;0.20;;;0.20;;
17127;SDS011;8679;50.842;4.322;2022-11-20T15:53:21;0.53;;;0.53;;
17127;SDS011;8679;50.842;4.322;2022-11-20T15:55:47;0.20;;;0.20;;
17127;SDS011;8679;50.842;4.322;2022-11-20T15:58:13;0.30;;;0.30;;
17127;SDS011;8679;50.842;4.322;2022-11-20T16:00:39;0.20;;;0.20;;
17127;SDS011;8679;50.842;4.322;2022-11-20T16:03:04;4.00;;;0.30;;
17127;SDS011;8679;50.842;4.322;2022-11-20T16:05:30;0.30;;;0.30;;
17127;SDS011;8679;50.842;4.322;2022-11-20T16:07:56;0.50;;;0.50;;
17127;SDS011;8679;50.842;4.322;2022-11-20T16:10:22;0.27;;;0.27;;
17127;SDS011;8679;50.842;4.322;2022-11-20T16:12:48;0.43;;;0.40;;
17127;SDS011;8679;50.842;4.322;2022-11-20T16:15:33;0.10;;;0.10;;
17127;SDS011;8679;50.842;4.322;2022-11-20T16:18:11;0.73;;;0.40;;
17127;SDS011;8679;50.842;4.322;2022-11-20T16:20:39;0.60;;;0.60;;
17127;SDS011;8679;50.842;4.322;2022-11-20T16:23:05;0.30;;;0.30;;
17127;SDS011;8679;50.842;4.322;2022-11-20T16:25:32;0.67;;;0.43;;
17127;SDS011;8679;50.842;4.322;2022-11-20T16:27:57;1.60;;;1.47;;
17127;SDS011;8679;50.842;4.322;2022-11-20T16:30:23;2.53;;;1.40;;
17127;SDS011;8679;50.842;4.322;2022-11-20T16:32:49;2.30;;;1.13;;
17127;SDS011;8679;50.842;4.322;2022-11-20T16:35:15;2.53;;;1.27;;
17127;SDS011;8679;50.842;4.322;2022-11-20T16:37:41;1.00;;;0.70;;
17127;SDS011;8679;50.842;4.322;2022-11-20T16:40:08;0.60;;;0.50;;
17127;SDS011;8679;50.842;4.322;2022-11-20T16:42:35;2.43;;;0.60;;
17127;SDS011;8679;50.842;4.322;2022-11-20T16:45:02;0.93;;;0.87;;
17127;SDS011;8679;50.842;4.322;2022-11-20T16:47:32;0.10;;;0.10;;
17127;SDS011;8679;50.842;4.322;2022-11-20T16:49:58;1.10;;;0.67;;
17127;SDS011;8679;50.842;4.322;2022-11-20T16:52:24;0.20;;;0.20;;